Seaexpressii — HO4619 — position and weather

sailwx.info

Track history (hours):
 
Tides and Currents Weather Stations Pressure Air Temp Water Temp Dewpoint Dewpoint Depression Visibility Wind Speed Wind Dir Waves Ship Positions

Seaexpressii

Last reported at 2014-Aug-25 02:31 UTC. Time now 2014-Aug-29 01:32 UTC.
Position N 25°60' W 079°43'.

Length 37 m; draft 2 m.

Type: Ship. MMSI: 356449000.

Date/timePositionNaut miles runAvg speedWind from/ knotsBaromVisibWave heightAir tempDewpointWater temp
2014-Aug-25 02:31N 25°60' W 079°43'9 9.3
2014-Aug-25 01:33N 26°02' W 079°53'10 9.5
2014-Aug-25 00:33N 26°05' W 080°03'5 4.5
2014-Aug-24 23:33N 26°04' W 080°08'0 0.0
2014-Aug-24 22:33N 26°04' W 080°08'0 0.0
2014-Aug-24 21:33N 26°04' W 080°08'0 0.0
2014-Aug-24 20:33N 26°04' W 080°08'0 0.0
2014-Aug-24 19:33N 26°04' W 080°08'0 0.0
2014-Aug-24 18:33N 26°04' W 080°08'0 0.1
2014-Aug-24 17:33N 26°04' W 080°08'3 3.0
2014-Aug-24 16:33N 26°06' W 080°05'1010.2
2014-Aug-24 15:33N 26°03' W 079°54'1010.4
2014-Aug-24 14:33N 26°00' W 079°43'1010.0
2014-Aug-24 13:33N 25°59' W 079°32'30 9.7
2014-Aug-24 10:30N 25°56' W 078°59'1110.0
2014-Aug-24 09:25N 25°51' W 078°49'2210.0
2014-Aug-24 07:16N 25°39' W 078°29'67 1.9
2014-Aug-22 20:12N 26°05' W 079°38'6 9.3
2014-Aug-22 19:33N 26°05' W 079°45'9 9.4
2014-Aug-22 18:33N 26°05' W 079°56'9 9.3
2014-Aug-22 17:34N 26°06' W 080°06'3 2.6
2014-Aug-22 16:34N 26°04' W 080°08'0 0.0
2014-Aug-22 15:33N 26°04' W 080°08'0 0.0
2014-Aug-22 14:33N 26°04' W 080°08'0 0.0
2014-Aug-22 13:33N 26°04' W 080°08'0 0.0
2014-Aug-22 12:34N 26°04' W 080°08'0 0.2
2014-Aug-22 11:33N 26°04' W 080°08'7 7.1
2014-Aug-22 10:33N 26°03' W 079°60'1010.1
2014-Aug-22 09:33N 25°58' W 079°50'9 9.3
2014-Aug-22 08:33N 25°54' W 079°41'3 0.1
2014-Aug-21 07:22N 25°55' W 079°43'7 8.2
2014-Aug-21 06:33N 25°58' W 079°50'8 8.2
2014-Aug-21 05:33N 26°02' W 079°58'8 8.1
2014-Aug-21 04:33N 26°06' W 080°06'3 2.6
2014-Aug-21 03:33N 26°04' W 080°08'0 0.0
2014-Aug-21 02:33N 26°04' W 080°08'0 0.0
2014-Aug-21 01:33N 26°04' W 080°08'0 0.0
2014-Aug-21 00:34N 26°04' W 080°08'0 0.0
2014-Aug-20 23:33N 26°04' W 080°08'0 0.0
2014-Aug-20 22:33N 26°04' W 080°08'0 0.0
2014-Aug-20 21:33N 26°04' W 080°08'0 0.0
2014-Aug-20 20:33N 26°04' W 080°08'0 0.0
2014-Aug-20 19:33N 26°04' W 080°08'0 0.0
2014-Aug-20 18:33N 26°04' W 080°08'0 0.0
2014-Aug-20 17:33N 26°04' W 080°08'0 0.2
2014-Aug-20 16:33N 26°04' W 080°08'  
Track history (hours):
 
Tides and Currents Weather Stations Pressure Air Temp Water Temp Dewpoint Dewpoint Depression Visibility Wind Speed Wind Dir Waves Ship Positions

Seaexpressii

Last reported at 2014-Aug-25 02:31 UTC. Time now 2014-Aug-29 01:32 UTC.
Position N 25°60' W 079°43'.

Length 37 m; draft 2 m.

Type: Ship. MMSI: 356449000.

Date/timePositionNaut miles runAvg speedWind from/ knotsBaromVisibWave heightAir tempDewpointWater temp
2014-Aug-25 02:31N 25°60' W 079°43'9 9.3
2014-Aug-25 01:33N 26°02' W 079°53'10 9.5
2014-Aug-25 00:33N 26°05' W 080°03'5 4.5
2014-Aug-24 23:33N 26°04' W 080°08'0 0.0
2014-Aug-24 22:33N 26°04' W 080°08'0 0.0
2014-Aug-24 21:33N 26°04' W 080°08'0 0.0
2014-Aug-24 20:33N 26°04' W 080°08'0 0.0
2014-Aug-24 19:33N 26°04' W 080°08'0 0.0
2014-Aug-24 18:33N 26°04' W 080°08'0 0.1
2014-Aug-24 17:33N 26°04' W 080°08'3 3.0
2014-Aug-24 16:33N 26°06' W 080°05'1010.2
2014-Aug-24 15:33N 26°03' W 079°54'1010.4
2014-Aug-24 14:33N 26°00' W 079°43'1010.0
2014-Aug-24 13:33N 25°59' W 079°32'30 9.7
2014-Aug-24 10:30N 25°56' W 078°59'1110.0
2014-Aug-24 09:25N 25°51' W 078°49'2210.0
2014-Aug-24 07:16N 25°39' W 078°29'67 1.9
2014-Aug-22 20:12N 26°05' W 079°38'6 9.3
2014-Aug-22 19:33N 26°05' W 079°45'9 9.4
2014-Aug-22 18:33N 26°05' W 079°56'9 9.3
2014-Aug-22 17:34N 26°06' W 080°06'3 2.6
2014-Aug-22 16:34N 26°04' W 080°08'0 0.0
2014-Aug-22 15:33N 26°04' W 080°08'0 0.0
2014-Aug-22 14:33N 26°04' W 080°08'0 0.0
2014-Aug-22 13:33N 26°04' W 080°08'0 0.0
2014-Aug-22 12:34N 26°04' W 080°08'0 0.2
2014-Aug-22 11:33N 26°04' W 080°08'7 7.1
2014-Aug-22 10:33N 26°03' W 079°60'1010.1
2014-Aug-22 09:33N 25°58' W 079°50'9 9.3
2014-Aug-22 08:33N 25°54' W 079°41'3 0.1
2014-Aug-21 07:22N 25°55' W 079°43'7 8.2
2014-Aug-21 06:33N 25°58' W 079°50'8 8.2
2014-Aug-21 05:33N 26°02' W 079°58'8 8.1
2014-Aug-21 04:33N 26°06' W 080°06'3 2.6
2014-Aug-21 03:33N 26°04' W 080°08'0 0.0
2014-Aug-21 02:33N 26°04' W 080°08'0 0.0
2014-Aug-21 01:33N 26°04' W 080°08'0 0.0
2014-Aug-21 00:34N 26°04' W 080°08'0 0.0
2014-Aug-20 23:33N 26°04' W 080°08'0 0.0
2014-Aug-20 22:33N 26°04' W 080°08'0 0.0
2014-Aug-20 21:33N 26°04' W 080°08'0 0.0
2014-Aug-20 20:33N 26°04' W 080°08'0 0.0
2014-Aug-20 19:33N 26°04' W 080°08'0 0.0
2014-Aug-20 18:33N 26°04' W 080°08'0 0.0
2014-Aug-20 17:33N 26°04' W 080°08'0 0.2
2014-Aug-20 16:33N 26°04' W 080°08'  

Dump ship's entire track history